• Join FlightAware (Why Join?)
  • Login
  • US Flag 
03:43PM EDT


 

Airport Tracker/Info


-or-


 

Live Flight TrackerFlight Track Log ✈ SWA2975 ✈ 30-Jun-2013 ✈ KSLC - KMDW

Flight Track Log - Related Links

Times and Time Zones

All times are in EDT time to prevent confusion due to time zone crossing. See the SWA2975 flight status page for this flight to view local times or setup timezone preferences in your user account.

Time Position Orientation Groundspeed Altitude Reporting Facility
EDT Latitude Longitude Course Direction KTS MPH feet Rate Location/Type
06:29PM 40.8153 -111.9792 353° North 182 209 5,400  Level Salt Lake Center
06:30PM 40.8664 -111.9875 353° North 195 224 6,600 1,440 Climbing Salt Lake Center
06:30PM 40.9119 -111.9908 357° North 235 270 7,700 2,100 Climbing Salt Lake Center
06:31PM 40.9864 -112.0006 354° North 263 303 10,200 2,280 Climbing Salt Lake Center
06:32PM 41.0475 -111.9594 27° Northeast 280 322 12,500 1,860 Climbing Salt Lake Center
06:33PM 41.0475 -111.8494 90° East 296 341 14,100 1,620 Climbing Salt Lake Center
06:34PM 41.0483 -111.7136 89° East 346 398 15,900 1,920 Climbing Salt Lake Center
06:37PM 41.0475 -111.4392 90° East 378 435 20,100 1,920 Climbing Salt Lake Center
06:38PM 41.0475 -111.2947 90° East 393 452 22,000 1,560 Climbing Salt Lake Center
06:39PM 41.0489 -111.1469 89° East 401 461 23,400 1,320 Climbing Salt Lake Center
06:40PM 41.0733 -110.9911 78° East 430 495 24,800 1,440 Climbing Salt Lake Center
06:42PM 41.1236 -110.6403 79° East 456 525 27,900 1,440 Climbing Salt Lake Center
06:43PM 41.1456 -110.4808 80° East 460 529 29,300 1,440 Climbing Salt Lake Center
06:44PM 41.1717 -110.2942 79° East 461 531 30,900 1,320 Climbing Salt Lake Center
06:45PM 41.1928 -110.1361 80° East 457 526 32,100 1,140 Climbing Salt Lake Center
06:46PM 41.2147 -109.9775 80° East 457 526 33,300 1,260 Climbing Salt Lake Center
06:47PM 41.2389 -109.7936 80° East 454 522 34,700 1,260 Climbing Salt Lake Center
06:48PM 41.2594 -109.6378 80° East 450 518 35,900 900 Climbing Salt Lake Center
06:49PM 41.2825 -109.4564 80° East 447 514 36,600 480 Climbing Salt Lake Center
06:50PM 41.3019 -109.3006 81° East 450 518 37,000 180 Climbing Salt Lake Center
06:51PM 41.3239 -109.1175 81° East 457 526 37,000  Level Salt Lake Center
06:52PM 41.3456 -108.9633 79° East 454 522 37,000  Level Salt Lake Center
06:53PM 41.3678 -108.7844 81° East 445 512 37,000  Level Salt Lake Center
06:54PM 41.3872 -108.6283 81° East 446 513 37,000  Level Salt Lake Center
06:55PM 41.4100 -108.4467 80° East 448 516 37,000  Level Salt Lake Center
06:56PM 41.4278 -108.2900 81° East 449 517 37,000  Level Salt Lake Center
06:57PM 41.4492 -108.1094 81° East 443 510 37,000  Level Salt Lake Center
06:58PM 41.4678 -107.9553 81° East 445 512 37,000  Level Salt Lake Center
06:59PM 41.4850 -107.8008 81° East 444 511 37,000  Level Salt Lake Center
07:00PM 41.5056 -107.6200 81° East 444 511 37,000  Level Salt Lake Center
07:01PM 41.5225 -107.4644 82° East 446 513 37,000  Level Salt Lake Center
07:02PM 41.5433 -107.2819 81° East 446 513 37,000  Level Salt Lake Center
07:03PM 41.5600 -107.1256 82° East 447 514 37,000  Level Salt Lake Center
07:04PM 41.5758 -106.9689 82° East 446 513 37,000  Level Salt Lake Center
07:05PM 41.5956 -106.7861 82° East 447 514 37,000  Level Salt Lake Center
07:06PM 41.6128 -106.6208 82° East 448 516 37,000  Level Salt Lake Center
07:07PM 41.6292 -106.4625 82° East 450 518 37,000  Level Salt Lake Center
07:08PM 41.6464 -106.2769 83° East 452 520 37,000  Level Salt Lake Center
07:10PM 41.6728 -106.0397 81° East 451 519 37,000  Level Denver Center
07:11PM 41.6761 -105.8781 88° East 453 521 37,000  Level Denver Center
07:12PM 41.6736 -105.6878 91° East 458 527 37,000  Level Denver Center
07:13PM 41.6711 -105.5236 91° East 460 529 37,000  Level Denver Center
07:14PM 41.6686 -105.3317 91° East 465 535 37,000  Level Denver Center
07:15PM 41.6678 -105.1681 90° East 462 532 37,000  Level Denver Center
07:16PM 41.6647 -104.9706 91° East 471 542 37,000  Level Denver Center
07:17PM 41.6619 -104.8033 91° East 472 543 37,000  Level Denver Center
07:18PM 41.6581 -104.6117 91° East 465 535 37,000  Level Denver Center
07:19PM 41.6550 -104.4444 91° East 470 541 37,000  Level Denver Center
07:20PM 41.6517 -104.2489 91° East 473 544 37,000  Level Denver Center
07:21PM 41.6481 -104.0831 92° East 469 540 37,000  Level Denver Center
07:22PM 41.6431 -103.8881 92° East 471 542 37,000  Level Denver Center
07:23PM 41.6394 -103.7214 92° East 470 541 37,000  Level Denver Center
07:24PM 41.6336 -103.5550 93° East 471 542 37,000  Level Denver Center
07:25PM 41.6297 -103.3600 91° East 470 541 37,000  Level Denver Center
07:26PM 41.6244 -103.1947 92° East 468 539 37,000  Level Denver Center
07:27PM 41.6178 -103.0008 93° East 468 539 37,000  Level Denver Center
07:28PM 41.6122 -102.8353 93° East 467 537 37,000  Level Denver Center
07:29PM 41.6053 -102.6417 93° East 469 540 37,000  Level Denver Center
07:30PM 41.6003 -102.4622 92° East 465 535 37,000  Level Denver Center
07:31PM 41.5936 -102.2961 93° East 468 539 37,000  Level Denver Center
07:32PM 41.5875 -102.1014 92° East 470 541 37,000  Level Denver Center
07:33PM 41.5792 -101.9350 94° East 470 541 37,000  Level Denver Center
07:35PM 41.5728 -101.7672 93° East 471 542 37,000  Level Denver Center
07:36PM 41.5636 -101.5711 94° East 474 545 37,000  Level Denver Center
07:37PM 41.5572 -101.4036 93° East 472 543 37,000  Level Denver Center
07:38PM 41.5469 -101.2081 94° East 472 543 37,000  Level Denver Center
07:39PM 41.5389 -101.0400 94° East 471 542 37,000  Level Denver Center
07:40PM 41.5308 -100.8444 93° East 472 543 37,000  Level Denver Center
07:41PM 41.5217 -100.6783 94° East 468 539 37,000  Level Denver Center
07:42PM 41.5128 -100.5106 94° East 470 541 37,000  Level Denver Center
07:43PM 41.5011 -100.3156 95° East 470 541 37,000  Level Denver Center
07:44PM 41.5022 -100.1483 89° East 470 541 37,000  Level Denver Center
07:45PM 41.5061 -99.9522 88° East 472 543 37,000  Level Denver Center
07:46PM 41.5075 -99.7844 89° East 472 543 37,000  Level Denver Center
07:47PM 41.5086 -99.6114 89° East 472 543 37,000  Level Denver Center
07:48PM 41.5103 -99.4369 89° East 470 541 37,000  Level Denver Center
07:49PM 41.5119 -99.2264 89° East 470 541 37,000  Level Denver Center
07:51PM 41.5117 -98.9558 90° East 467 537 37,000  Level Minneapolis Center
07:52PM 41.5008 -98.7833 95° East 471 542 37,000  Level Minneapolis Center
07:53PM 41.4344 -98.6244 119° Southeast 495 570 37,000  Level Minneapolis Center
07:54PM 41.3256 -98.5075 141° Southeast 507 583 37,000  Level Minneapolis Center
07:55PM 41.1903 -98.3992 149° Southeast 511 588 37,000  Level Minneapolis Center
07:56PM 41.0694 -98.2981 148° Southeast 509 586 37,000  Level Minneapolis Center
07:57PM 40.9486 -98.1972 148° Southeast 509 586 37,000  Level Minneapolis Center
07:58PM 40.8281 -98.0986 148° Southeast 508 585 37,000  Level Minneapolis Center
07:59PM 40.7072 -97.9986 148° Southeast 509 586 37,000  Level Minneapolis Center
08:00PM 40.5872 -97.8986 148° Southeast 510 587 37,000  Level Minneapolis Center
08:01PM 40.4667 -97.8008 148° Southeast 509 586 37,000  Level Minneapolis Center
08:03PM 40.2794 -97.5206 131° Southeast 476 548 37,000  Level Minneapolis Center
08:04PM 40.3031 -97.3606 79° East 451 519 37,000  Level Minneapolis Center
08:05PM 40.3561 -97.2142 65° Northeast 428 493 37,000  Level Minneapolis Center
08:06PM 40.4419 -97.1217 39° Northeast 405 466 37,000  Level Minneapolis Center
08:07PM 40.5269 -97.0292 40° Northeast 415 478 37,000  Level Minneapolis Center
08:08PM 40.5428 -96.8653 83° East 452 520 37,000  Level Minneapolis Center
08:09PM 40.5622 -96.7028 81° East 453 521 37,000  Level Minneapolis Center
08:10PM 40.5853 -96.5072 81° East 452 520 37,000  Level Minneapolis Center
08:11PM 40.6078 -96.3122 81° East 452 520 37,000  Level Minneapolis Center
08:12PM 40.6256 -96.1492 82° East 452 520 37,000  Level Minneapolis Center
08:13PM 40.6433 -95.9883 82° East 449 517 37,000  Level Minneapolis Center
08:14PM 40.6608 -95.8253 82° East 451 519 37,000  Level Minneapolis Center
08:15PM 40.6781 -95.6633 82° East 450 518 37,000  Level Minneapolis Center
08:16PM 40.6922 -95.5322 82° East 452 520 37,000  Level Minneapolis Center
08:17PM 40.7122 -95.3372 82° East 451 519 37,000  Level Minneapolis Center
08:19PM 40.7322 -95.1450 82° East 446 513 37,000  Level Minneapolis Center
08:20PM 40.7486 -94.9847 82° East 444 511 37,000  Level Minneapolis Center
08:21PM 40.7653 -94.8250 82° East 442 509 37,000  Level Minneapolis Center
08:22PM 40.7806 -94.6622 83° East 445 512 37,000  Level Minneapolis Center
08:23PM 40.7958 -94.4956 83° East 446 513 37,000  Level Minneapolis Center
08:24PM 40.8133 -94.3322 82° East 450 518 37,000  Level Minneapolis Center
08:25PM 40.8281 -94.1700 83° East 450 518 37,000  Level Minneapolis Center
08:26PM 40.8411 -94.0083 84° East 448 516 37,000  Level Minneapolis Center
08:27PM 40.8561 -93.8444 83° East 449 517 37,000  Level Minneapolis Center
08:28PM 40.8756 -93.6461 83° East 453 521 37,000  Level Minneapolis Center
08:29PM 40.8889 -93.4808 84° East 455 524 37,000  Level Minneapolis Center
08:30PM 40.9036 -93.3156 83° East 455 524 37,000  Level Minneapolis Center
08:31PM 40.9172 -93.1506 84° East 455 524 37,000  Level Minneapolis Center
08:32PM 40.9314 -92.9844 84° East 456 525 37,000  Level Minneapolis Center
08:33PM 40.9464 -92.7850 84° East 455 524 37,000 -120 Level Chicago Center
08:34PM 40.9606 -92.6189 84° East 456 525 36,800 -600 Descending Chicago Center
08:35PM 40.9742 -92.4564 84° East 449 517 35,800 -1,020 Descending Chicago Center
08:36PM 40.9883 -92.2589 85° East 450 518 34,700 -1,080 Descending Chicago Center
08:37PM 41.0000 -92.0986 84° East 444 511 33,600 -1,020 Descending Chicago Center
08:38PM 41.0128 -91.9403 84° East 436 502 32,600 -1,020 Descending Chicago Center
08:39PM 41.0244 -91.7847 84° East 429 494 31,600 -840 Descending Chicago Center
08:40PM 41.0364 -91.6092 85° East 424 488 31,000 -300 Descending Chicago Center
08:41PM 41.0475 -91.4553 84° East 421 484 31,000  Level Chicago Center
08:42PM 41.0569 -91.2994 85° East 424 488 31,000 -360 Level Chicago Center
08:43PM 41.0669 -91.1483 85° East 414 476 30,300 -1,440 Descending Chicago Center
08:44PM 41.0778 -91.0031 84° East 399 459 28,100 -1,860 Descending Chicago Center
08:45PM 41.0872 -90.8606 85° East 391 450 26,500 -1,320 Descending Chicago Center
08:46PM 41.0944 -90.7211 86° East 382 440 25,400 -1,020 Descending Chicago Center
08:47PM 41.1044 -90.5833 84° East 377 434 24,400 -1,080 Descending Chicago Center
08:48PM 41.1147 -90.4203 85° East 373 429 23,200 -1,020 Descending Chicago Center
08:50PM 41.0983 -90.2936 100° East 364 419 22,300 -1,020 Descending Chicago Center
08:51PM 41.0197 -90.2064 140° Southeast 367 422 21,200 -1,020 Descending Chicago Center
08:52PM 40.9353 -90.1153 141° Southeast 364 419 20,200 -1,020 Descending Chicago Center
08:53PM 40.8978 -90.0047 114° Southeast 351 404 19,200 -1,020 Descending Chicago Center
08:54PM 40.8797 -89.8825 101° East 342 394 18,200 -960 Descending Chicago Center
08:55PM 40.9036 -89.7642 75° East 343 395 17,300 -1,020 Descending Chicago Center
08:56PM 40.9406 -89.6108 72° East 365 420 16,200 -1,020 Descending Chicago Center
08:57PM 40.9794 -89.4814 68° East 374 430 15,200 -1,020 Descending Chicago Center
08:58PM 41.0114 -89.3569 71° East 360 414 14,200 -1,020 Descending Chicago Center
08:59PM 41.0533 -89.2389 65° Northeast 355 409 13,200 -600 Descending Chicago Center
09:00PM 41.1083 -89.1389 54° Northeast 348 400 13,000 -120 Descending Chicago Center
09:01PM 41.1650 -89.0347 54° Northeast 349 402 13,000 -840 Level Chicago Center
09:02PM 41.2314 -88.9114 54° Northeast 343 395 11,300 -1,380 Descending Chicago Center
09:03PM 41.2831 -88.8125 55° Northeast 328 377 10,200 -1,020 Descending Chicago Center
09:04PM 41.3283 -88.7286 54° Northeast 283 326 9,300 -1,200 Descending Chicago Center
09:05PM 41.3722 -88.6450 55° Northeast 276 318 7,800 -1,260 Descending Chicago Center
09:06PM 41.4136 -88.5664 55° Northeast 263 303 6,700 -900 Descending Chicago Center
09:07PM 41.4444 -88.4814 64° Northeast 257 296 6,000 -840 Descending Chicago Center
09:08PM 41.4811 -88.3814 64° Northeast 252 290 5,000 -1,020 Descending Chicago Center
09:09PM 41.5117 -88.2989 64° Northeast 249 287 4,000 -540 Descending Chicago Center
09:10PM 41.5414 -88.2186 64° Northeast 242 278 4,000  Level Chicago Center
09:11PM 41.5717 -88.1378 63° Northeast 242 278 4,000  Level Chicago Center
09:12PM 41.6022 -88.0572 63° Northeast 242 278 4,000  Level Chicago Center
09:13PM 41.6269 -87.9883 64° Northeast 213 245 4,000  Level Chicago Center
09:14PM 41.6486 -87.9317 63° Northeast 192 221 4,000 -300 Level Chicago Center
09:15PM 41.6753 -87.8886 50° Northeast 168 193 3,400 -780 Descending Chicago Center
09:16PM 41.7139 -87.8425 42° Northeast 159 183 2,400 -840 Descending Chicago Center
09:17PM 41.7408 -87.8083 43° Northeast 148 170 1,700 -780 Descending Chicago Center
09:18PM 41.7669 -87.7753 43° Northeast 137 158 900 -780 Descending Chicago Center
09:20PM 41.7833 -87.7500 51° Northeast  Level FlightAware Approximate
09:27PM 41.7860 -87.7524 51° Northeast  Level Estimated